Wickenby Aerodrome

EGNW · Inghilterra, Regno Unito

Storia di METAR EGNW · Wickenby Aerodrome

Di seguito sono riportati i METAR degli ultimi giorni. Seleziona un anno per sfogliare i METAR più vecchi, dall'anno 2007 in poi.

29 novembre 2022

Tempo Codice Tempo metereologico Temp. Vista Base nuvolosa Vento METAR/SPECI
07:50
L
5 °C 2,8 km 300 ft 300° 300° 2 kt METAR EGXW 290750Z 30002KT 2800 BR OVC003 05/05 Q1019 TEMPO 2000 RMK YLO2 TEMPO YLO2
07:20
L
5 °C 2,5 km 300 ft 330° 330° 1 kt METAR EGXW 290720Z 33001KT 2500 BR OVC003 05/05 Q1019 TEMPO 2000 OVC002 RMK YLO2 TEMPO AMB
06:50
L
5 °C 3 km 300 ft 360° 360° 2 kt METAR EGXW 290650Z 36002KT 3000 BR OVC003 05/05 Q1019
05:50
L
5 °C 3 km 200 ft 030° 030° 3 kt METAR EGXW 290550Z AUTO 03003KT 3000 BR OVC002/// 05/05 Q1018
04:50
L
5 °C 3 km 200 ft 330° 330° 1 kt METAR EGXW 290450Z AUTO 33001KT 3000 BR OVC002/// 05/05 Q1017
03:50
L
5 °C 3,3 km 200 ft 350° 350° 2 kt METAR EGXW 290350Z AUTO 35002KT 3300 BR OVC002/// 05/05 Q1017
02:50
L
5 °C 3,7 km 200 ft 350° 350° 3 kt METAR EGXW 290250Z AUTO 35003KT 3700 BR OVC002/// 05/05 Q1016
01:50
L
6 °C 4,9 km 300 ft 340° 340° 5 kt METAR EGXW 290150Z AUTO 34005KT 4900 BR OVC003/// 06/05 Q1016
00:50
L
6 °C 5 km 300 ft 330° 330° 5 kt METAR EGXW 290050Z AUTO 33005KT 5000 BR OVC003/// 06/05 Q1015

28 novembre 2022

Tempo Codice Tempo metereologico Temp. Vista Base nuvolosa Vento METAR/SPECI
23:50
L
6 °C 4,7 km 200 ft 310° 310° 5 kt METAR EGXW 282350Z AUTO 31005KT 4700 BR OVC002/// 06/05 Q1015
22:50
L
6 °C 5 km 300 ft 330° 330° 5 kt METAR EGXW 282250Z AUTO 33005KT 5000 BR OVC003/// 06/05 Q1014
21:50
L
6 °C 7 km 300 ft 330° 330° 4 kt METAR EGXW 282150Z AUTO 33004KT 7000 BR OVC003/// 06/06 Q1014
20:50
L
6 °C 6 km 300 ft 300° 300° 4 kt METAR EGXW 282050Z AUTO 30004KT 6000 BR OVC003/// 06/06 Q1013
19:50
L
6 °C 5 km 300 ft 350° 350° 3 kt METAR EGXW 281950Z AUTO 35003KT 5000 BR OVC003/// 06/06 Q1013
18:50
L
6 °C 3,1 km 200 ft 290° 290° 1 kt METAR EGXW 281850Z AUTO 29001KT 3100 BR OVC002/// 06/06 Q1012
17:50
L
6 °C 4 km 300 ft 200° 200° 1 kt METAR EGXW 281750Z 20001KT 4000 BR OVC003 06/06 Q1011 RMK YLO2
17:20
L
6 °C 4 km 300 ft 270° 270° 4 kt METAR EGXW 281720Z 27004KT 4000 BR OVC003 06/06 Q1011 TEMPO 0500 FG OVC000 RMK YLO2 TEMPO RED
16:50
L
6 °C 3 km 300 ft 260° 260° 4 kt METAR EGXW 281650Z 26004KT 3000 BR OVC003 06/06 Q1010 TEMPO 0500 FG OVC000 RMK YLO2 TEMPO RED
16:20
L
6 °C 3 km 300 ft Var 000° 0 kt METAR EGXW 281620Z 00000KT 3000 BR OVC003 06/06 Q1010 NOSIG RMK YLO1 YLO1
15:50
L
6 °C 3,5 km 300 ft 240° 240° 3 kt METAR EGXW 281550Z 24003KT 3500 BR OVC003 06/06 Q1010 NOSIG RMK YLO2 YLO2
15:20
L
6 °C 3,8 km 300 ft 230° 230° 3 kt METAR EGXW 281520Z 23003KT 3800 BR OVC003 06/06 Q1009 NOSIG RMK YLO2 YLO2
14:51
L
6 °C 3,5 km 300 ft 220° 220° 5 kt METAR EGXW 281451Z 22005KT 3500 BR OVC003 06/06 Q1009 NOSIG RMK YLO2 YLO2
14:50
L
6 °C 6 km 200 ft 220° 220° 5 kt METAR EGXW 281450Z AUTO 22005KT 6000 BR OVC002/// 06/06 Q1009
14:20
L
6 °C 1,8 km 200 ft 230° 230° 6 kt METAR EGXW 281420Z 23006KT 1800 BR OVC002 06/06 Q1009 BECMG 3000 BKN003 RMK AMB BECMG YLO2
13:50
L
6 °C 1 km 200 ft 220° 220° 6 kt METAR EGXW 281350Z 22006KT 1000 BR OVC002 06/06 Q1008 BECMG 3000 BKN003 RMK AMB BECMG YLO2
13:20
L
6 °C 300 m - 200° 200° 4 kt METAR EGXW 281320Z 20004KT 0300 FG VV/// 06/06 Q1008 TEMPO 3000 BKN003 RMK RED TEMPO YL02
12:50
L
6 °C 300 m - 220° 220° 5 kt METAR EGXW 281250Z AUTO 22005KT 0300 FG VV/// 06/06 Q1008
12:26
L
6 °C 400 m - 230° 230° 5 kt METAR EGXW 281226Z 23005KT 0400 FG VV/// 06/06 Q1008 TEMPO 3000 BR BKN003 RMK RED TEMPO YLO2
11:50
L
6 °C 700 m - 210° 210° 6 kt METAR EGXW 281150Z AUTO 21006KT 0700 FG VV/// 06/06 Q1007
11:20
L
5 °C 200 m - 180° 180° 5 kt METAR EGXW 281120Z 18005KT 0200 FG VV/// 05/05 Q1007 NOSIG RMK RED RED
10:50
L
4 °C 100 m - 180° 180° 4 kt METAR EGXW 281050Z AUTO 18004KT 0100 FG VV/// 04/04 Q1007
10:20
L
4 °C 100 m - 140° 140° 4 kt METAR EGXW 281020Z 14004KT 0100 FG VV/// 04/04 Q1007 TEMPO 3000 BR BKN003 RMK RED TEMPO YL02
09:50
L
3 °C 100 m - 170° 170° 2 kt METAR EGXW 280950Z 17002KT 0100 FG VV/// 03/03 Q1007 TEMPO 3000 BR BKN003 RMK RED TEMPO YL02
09:20
L
3 °C 150 m - 140° 140° 4 kt METAR EGXW 280920Z 14004KT 0150 FG OVC000 03/03 Q1007 TEMPO 3000 BR BKN003 RMK RED TEMPO YL02
08:50
L
2 °C 150 m - 130° 130° 3 kt METAR EGXW 280850Z AUTO 13003KT 0150 FG VV/// 02/02 Q1006
08:20
L
2 °C 400 m - 150° 150° 3 kt METAR EGXW 280820Z 15003KT 0400 FG OVC000 02/02 Q1007 TEMPO 3000 BR BKN003 RMK RED TEMPO YLO2
07:50
L
1 °C 100 m - 120° 120° 1 kt METAR EGXW 280750Z AUTO 12001KT 0100 FG VV/// 01/01 Q1006
07:20
L
2 °C 200 m 200 ft 120° 120° 5 kt METAR EGXW 280720Z 12005KT 0200 FG BKN002 02/01 Q1006 NOSIG RMK RED RED
07:03
L
3 °C 500 m 200 ft 120° 120° 4 kt METAR EGXW 280703Z 12004KT 0500 FG BKN002 03/02 Q1006 RED NOSIG REMK RED RED
06:50
M
5 °C 6 km - 210° 210° 2 kt METAR EGXW 280650Z 21002KT 6000 BR FEW007 05/04 Q1006 TEMPO 0500 FG BKN000 RMK WHT TEMPO RED
05:50
V
6 °C 9 km - 240° 240° 8 kt METAR EGXW 280550Z AUTO 24008KT 9000 BR NCD 06/06 Q1006
04:50
V
6 °C 10 km+ - 230° 230° 8 kt METAR EGXW 280450Z AUTO 23008KT 9999 NCD 06/06 Q1006
03:50
V
6 °C 10 km+ - 230° 230° 4 kt METAR EGXW 280350Z AUTO 23004KT 9999 NCD 06/06 Q1006
02:50
M
5 °C 6 km - 150° 150° 3 kt METAR EGXW 280250Z AUTO 15003KT 6000 HZ NCD 05/04 Q1005
01:50
V
7 °C 10 km+ - 220° 220° 7 kt METAR EGXW 280150Z AUTO 22007KT 9999 NCD 07/07 Q1005
00:50
V
7 °C 8 km - 220° 220° 7 kt METAR EGXW 280050Z AUTO 22007KT 8000 BR NCD 07/07 Q1005

27 novembre 2022

Tempo Codice Tempo metereologico Temp. Vista Base nuvolosa Vento METAR/SPECI
23:50
V
8 °C 8 km - 220° 220° 6 kt METAR EGXW 272350Z AUTO 22006KT 8000 BR NCD 08/07 Q1006
22:50
V
9 °C 9 km 21.000 ft 220° 220° 9 kt METAR EGXW 272250Z AUTO 22009KT 9000 BR BKN210/// 09/08 Q1006
21:50
V
9 °C 9 km - 210° 210° 7 kt METAR EGXW 272150Z AUTO 21007KT 9000 BR FEW190/// 09/08 Q1007
20:50
V
8 °C 8 km - 220° 220° 5 kt METAR EGXW 272050Z AUTO 22005KT 8000 BR FEW180/// 08/08 Q1007
19:50
M
8 °C 7 km - 160° 160° 4 kt METAR EGXW 271950Z AUTO 16004KT 7000 BR FEW180/// 08/07 Q1007
18:50
V
9 °C 8 km - 190° 190° 7 kt METAR EGXW 271850Z AUTO 19007KT 8000 HZ FEW190/// 09/08 Q1007
17:50
V
9 °C 10 km+ - 200° 200° 7 kt METAR EGXW 271750Z AUTO 20007KT 9999 SCT190/// 09/08 Q1008
16:50
V
9 °C 10 km+ - 200° 200° 6 kt METAR EGXW 271650Z AUTO 20006KT 9999 SCT190/// 09/08 Q1009
15:50
V
9 °C 9 km - 180° 180° 5 kt METAR EGXW 271550Z AUTO 18005KT 9000 FEW200/// 09/08 Q1009
14:50
V
10 °C 10 km+ - 200° 200° 6 kt METAR EGXW 271450Z AUTO 20006KT 9999 NCD 10/09 Q1009
13:50
V
11 °C 10 km+ - 220° 220° 6 kt METAR EGXW 271350Z AUTO 22006KT 9999 NCD 11/09 Q1010
12:50
V
11 °C 10 km+ - 220° 220° 6 kt METAR EGXW 271250Z AUTO 22006KT 9999 NCD 11/09 Q1010
11:50
V
12 °C 10 km+ - 220° 220° 7 kt METAR EGXW 271150Z AUTO 22007KT 9999 FEW140/// 12/10 Q1011
10:50
V
11 °C 10 km+ - 220° 220° 7 kt METAR EGXW 271050Z AUTO 22007KT 9999 FEW130/// 11/10 Q1012
09:50
V
11 °C 10 km+ 20.000 ft 200° 200° 9 kt METAR EGXW 270950Z AUTO 20009KT 9999 FEW140/// BKN200/// 11/10 Q1012
08:50
V
11 °C 10 km+ 13.000 ft 220° 220° 6 kt METAR EGXW 270850Z AUTO 22006KT 9999 BKN130/// 11/09 Q1012
07:50
V
11 °C 10 km+ 14.000 ft 230° 230° 7 kt METAR EGXW 270750Z AUTO 23007KT 9999 FEW006/// SCT023/// BKN140/// 11/10 Q1012 REDZ
06:50
V
11 °C 10 km+ 12.000 ft 220° 220° 8 kt METAR EGXW 270650Z AUTO 22008KT 9999 BKN120/// 11/10 Q1012
05:50
V
11 °C 10 km+ 12.000 ft 200° 200° 10 kt METAR EGXW 270550Z AUTO 20010KT 9999 FEW011/// BKN120/// 11/10 Q1011 REDZ
04:50
M
11 °C 6 km - 200° 200° 14 kt METAR EGXW 270450Z AUTO 20014KT 6000 +DZ FEW009/// SCT031/// 11/10 Q1011
03:50
I
11 °C 10 km+ 900 ft 210° 210° 14 kt METAR EGXW 270350Z AUTO 21014KT 9999 BKN009/// BKN140/// 11/10 Q1011
02:50
I
11 °C 10 km+ 900 ft 190° 190° 17 kt METAR EGXW 270250Z AUTO 19017KT 9999 BKN009/// BKN110/// 11/10 Q1010 RERA
01:50
V
11 °C 10 km+ 5.000 ft 190° 190° 17 kt METAR EGXW 270150Z AUTO 19017KT 9999 -RA SCT010/// BKN050/// 11/10 Q1011
00:50
M
11 °C 10 km+ 1.100 ft 200° 200° 21 kt METAR EGXW 270050Z AUTO 20021KT 9999 -RA BKN011/// BKN019/// 11/10 Q1011

26 novembre 2022

Tempo Codice Tempo metereologico Temp. Vista Base nuvolosa Vento METAR/SPECI
23:50
M
11 °C 10 km+ 1.500 ft 190° 190° 23 kt METAR EGXW 262350Z AUTO 19023KT 9999 -RA BKN015/// SCT025/// 11/09 Q1011
22:50
M
11 °C 10 km+ 1.700 ft 180° 180° 20 kt METAR EGXW 262250Z AUTO 18020KT 9999 BKN017/// BKN030/// 11/09 Q1012 REUP
21:50
V
11 °C 10 km+ 4.100 ft 180° 180° 20 kt METAR EGXW 262150Z AUTO 18020KT 9999 SCT019/// SCT036/// BKN041/// 11/08 Q1013
20:50
M
11 °C 10 km+ 1.800 ft 180° 180° 17 kt METAR EGXW 262050Z AUTO 18017KT 9999 BKN018/// BKN042/// 11/08 Q1014
19:50
V
10 °C 10 km+ 4.300 ft 170° 170° 17 kt METAR EGXW 261950Z AUTO 17017KT 9999 SCT016/// BKN043/// BKN140/// 10/08 Q1014 REDZ
18:50
M
10 °C 10 km+ 1.700 ft 170° 170° 16 kt METAR EGXW 261850Z AUTO 17016KT 9999 -DZ BKN017/// SCT050/// 10/08 Q1016
17:50
V
10 °C 10 km+ 5.000 ft 170° 170° 12 kt METAR EGXW 261750Z AUTO 17012KT 9999 OVC050/// 10/08 Q1017 REDZ
16:50
V
10 °C 10 km+ 7.000 ft 170° 170° 14 kt METAR EGXW 261650Z AUTO 17014KT 9999 BKN070/// 10/08 Q1017
15:50
V
10 °C 10 km+ - 170° 170° 12 kt METAR EGXW 261550Z AUTO 17012KT 9999 FEW080/// 10/07 Q1017
14:50
V
11 °C 10 km+ - 180° 180° 13 kt METAR EGXW 261450Z AUTO 18013KT 9999 NCD 11/08 Q1018
13:50
V
10 °C 10 km+ - 180° 180° 13 kt METAR EGXW 261350Z AUTO 18013KT 9999 FEW170/// 10/08 Q1019
12:50
V
10 °C 10 km+ - 180° 180° 14 kt METAR EGXW 261250Z AUTO 18014KT 9999 NCD 10/08 Q1020
11:50
V
10 °C 10 km+ - 180° 180° 16 kt METAR EGXW 261150Z AUTO 18016KT 9999 NCD 10/08 Q1020
10:50
V
10 °C 10 km+ - 200° 200° 17 kt METAR EGXW 261050Z AUTO 20017KT 9999 FEW140/// 10/08 Q1021
09:50
V
9 °C 10 km+ 14.000 ft 190° 190° 15 kt METAR EGXW 260950Z AUTO 19015KT 9999 OVC140/// 09/07 Q1022

Noi e le terze parti seguiamo il tuo comportamento su internet con i cookie. Se continui, riteniamo che tu sia d'accordo con la nostra Politica sui cookie.